createdAt,value
2019-04-28T00:00:25.287Z,9.10
2019-04-28T00:02:51.348Z,9.00
2019-04-28T00:05:17.795Z,9.10
2019-04-28T00:07:43.864Z,9.10
2019-04-28T00:10:11.000Z,9.10
2019-04-28T00:12:37.175Z,9.10
2019-04-28T00:15:04.341Z,9.10
2019-04-28T00:17:30.933Z,9.10
2019-04-28T00:19:58.960Z,9.10
2019-04-28T00:22:30.759Z,9.10
2019-04-28T00:24:58.860Z,9.10
2019-04-28T00:27:24.906Z,9.10
2019-04-28T00:29:51.907Z,9.10
2019-04-28T00:32:18.271Z,9.10
2019-04-28T00:34:44.539Z,9.10
2019-04-28T00:37:12.494Z,9.20
2019-04-28T00:39:38.544Z,9.10
2019-04-28T00:42:04.599Z,9.10
2019-04-28T00:44:31.459Z,9.10
2019-04-28T00:46:57.707Z,9.20
2019-04-28T00:49:34.265Z,9.20
2019-04-28T00:52:00.657Z,9.20
2019-04-28T00:54:28.288Z,9.20
2019-04-28T00:56:54.340Z,9.10
2019-04-28T00:59:21.720Z,9.10
2019-04-28T01:01:51.274Z,9.10
2019-04-28T01:04:17.532Z,9.10
2019-04-28T01:06:43.579Z,9.10
2019-04-28T01:09:11.730Z,9.10
2019-04-28T01:11:38.099Z,9.10
2019-04-28T01:14:04.207Z,9.10
2019-04-28T01:16:32.151Z,9.10
2019-04-28T01:19:02.875Z,9.10
2019-04-28T01:21:33.391Z,9.10
2019-04-28T01:23:59.804Z,9.10
2019-04-28T01:26:25.999Z,9.10
2019-04-28T01:28:52.067Z,9.10
2019-04-28T01:31:22.600Z,9.10
2019-04-28T01:33:56.535Z,9.10
2019-04-28T01:36:22.592Z,9.10
2019-04-28T01:38:50.069Z,9.10
2019-04-28T01:41:16.311Z,9.10
2019-04-28T01:43:42.367Z,9.10
2019-04-28T01:46:10.044Z,9.10
2019-04-28T01:48:36.384Z,9.00
2019-04-28T01:51:02.435Z,9.00
2019-04-28T01:53:28.491Z,9.00
2019-04-28T01:55:54.544Z,9.00
2019-04-28T01:58:20.644Z,9.00
2019-04-28T02:00:46.700Z,9.00
2019-04-28T02:03:12.868Z,9.00
2019-04-28T02:05:40.494Z,9.00
2019-04-28T02:08:06.779Z,9.00
2019-04-28T02:10:32.827Z,9.00
2019-04-28T02:12:59.930Z,9.00
2019-04-28T02:15:26.156Z,9.00
2019-04-28T02:17:52.297Z,9.00
2019-04-28T02:20:20.193Z,9.00
2019-04-28T02:22:50.006Z,9.00
2019-04-28T02:25:16.207Z,9.00
2019-04-28T02:27:42.271Z,9.00
2019-04-28T02:30:11.509Z,9.00
2019-04-28T02:32:40.526Z,9.00
2019-04-28T02:35:06.457Z,9.00
2019-04-28T02:37:32.701Z,9.00
2019-04-28T02:40:02.816Z,9.00
2019-04-28T02:42:26.851Z,9.00
2019-04-28T02:44:52.900Z,9.00
2019-04-28T02:47:21.582Z,9.00
2019-04-28T02:49:51.336Z,9.00
2019-04-28T02:52:20.624Z,9.00
2019-04-28T02:54:46.951Z,8.90
2019-04-28T02:57:13.015Z,9.00
2019-04-28T02:59:40.875Z,9.00
2019-04-28T03:02:07.049Z,9.00
2019-04-28T03:04:33.092Z,8.90
2019-04-28T03:07:01.365Z,8.90
2019-04-28T03:09:27.097Z,8.90
2019-04-28T03:11:53.348Z,8.90
2019-04-28T03:14:20.940Z,8.90
2019-04-28T03:16:47.297Z,8.90
2019-04-28T03:19:13.343Z,8.90
2019-04-28T03:21:41.657Z,8.90
2019-04-28T03:24:07.352Z,8.90
2019-04-28T03:26:41.543Z,8.80
2019-04-28T03:29:15.143Z,8.80
2019-04-28T03:32:13.689Z,8.80
2019-04-28T03:34:16.599Z,8.80
2019-04-28T03:36:42.651Z,8.80
2019-04-28T03:39:11.062Z,8.80
2019-04-28T03:41:36.676Z,8.80
2019-04-28T03:44:03.119Z,8.80
2019-04-28T03:46:31.167Z,8.80
2019-04-28T03:48:57.233Z,8.70
2019-04-28T03:51:23.392Z,8.70
2019-04-28T03:53:50.732Z,8.70
2019-04-28T03:56:17.014Z,8.70
2019-04-28T03:58:43.163Z,8.60
2019-04-28T04:01:10.714Z,8.60
2019-04-28T04:03:37.189Z,8.60
2019-04-28T04:06:03.349Z,8.70
2019-04-28T04:08:30.994Z,8.70
2019-04-28T04:11:02.204Z,8.60
2019-04-28T04:13:33.008Z,8.60
2019-04-28T04:16:20.494Z,8.60
2019-04-28T04:18:52.966Z,8.70
2019-04-28T04:21:16.154Z,8.70
2019-04-28T04:23:42.204Z,8.60
2019-04-28T04:26:11.437Z,8.60
2019-04-28T04:28:36.239Z,8.60
2019-04-28T04:31:03.207Z,8.60
2019-04-28T04:33:31.042Z,8.60
2019-04-28T04:35:57.329Z,8.60
2019-04-28T04:38:23.381Z,8.60
2019-04-28T04:40:51.246Z,8.60
2019-04-28T04:43:17.604Z,8.60
2019-04-28T04:45:43.657Z,8.60
2019-04-28T04:48:11.651Z,8.60
2019-04-28T04:50:37.683Z,8.60
2019-04-28T04:53:04.049Z,8.70
2019-04-28T04:55:30.781Z,8.70
2019-04-28T04:57:57.104Z,8.70
2019-04-28T05:00:25.055Z,8.80
2019-04-28T05:02:55.308Z,8.80
2019-04-28T05:05:22.875Z,8.80
2019-04-28T05:07:50.688Z,8.90
2019-04-28T05:10:16.911Z,8.90
2019-04-28T05:12:42.958Z,8.90
2019-04-28T05:15:10.396Z,9.00
2019-04-28T05:17:36.672Z,9.00
2019-04-28T05:20:04.939Z,9.10
2019-04-28T05:22:32.899Z,9.10
2019-04-28T05:25:03.632Z,9.20
2019-04-28T05:27:30.075Z,9.20
2019-04-28T05:30:02.544Z,9.20
2019-04-28T05:32:25.696Z,9.30
2019-04-28T05:34:52.907Z,9.30
2019-04-28T05:37:19.711Z,9.30
2019-04-28T05:39:47.308Z,9.30
2019-04-28T05:42:13.362Z,9.20
2019-04-28T05:44:40.817Z,9.30
2019-04-28T05:47:07.119Z,9.30
2019-04-28T05:49:35.087Z,9.30
2019-04-28T05:52:05.584Z,9.30
2019-04-28T05:54:49.632Z,9.30
2019-04-28T05:57:18.276Z,9.30
2019-04-28T06:00:03.733Z,9.40
2019-04-28T06:02:53.515Z,9.50
2019-04-28T06:05:10.162Z,9.60
2019-04-28T06:07:53.472Z,9.60
2019-04-28T06:10:20.153Z,9.70
2019-04-28T06:12:46.474Z,9.70
2019-04-28T06:15:12.557Z,9.70
2019-04-28T06:17:39.690Z,9.70
2019-04-28T06:20:06.129Z,9.70
2019-04-28T06:22:32.232Z,9.70
2019-04-28T06:24:58.303Z,9.70
2019-04-28T06:27:24.362Z,9.60
2019-04-28T06:29:50.450Z,9.60
2019-04-28T06:32:16.508Z,9.60
2019-04-28T06:34:42.564Z,9.60
2019-04-28T06:37:09.123Z,9.50
2019-04-28T06:39:35.173Z,9.50
2019-04-28T06:42:01.227Z,9.50
2019-04-28T06:44:27.283Z,9.50
2019-04-28T06:46:53.363Z,9.50
2019-04-28T06:49:19.414Z,9.50
2019-04-28T06:51:45.480Z,9.50
2019-04-28T06:54:11.526Z,9.50
2019-04-28T06:56:37.591Z,9.50
2019-04-28T06:59:03.646Z,9.50
2019-04-28T07:01:29.733Z,9.50
2019-04-28T07:03:55.787Z,9.60
2019-04-28T07:06:21.872Z,9.60
2019-04-28T07:08:47.952Z,9.60
2019-04-28T07:11:13.997Z,9.70
2019-04-28T07:13:40.147Z,9.80
2019-04-28T07:16:06.204Z,9.90
2019-04-28T07:18:32.274Z,10.00
2019-04-28T07:21:00.323Z,10.10
2019-04-28T07:23:26.687Z,10.00
2019-04-28T07:25:52.815Z,10.00
2019-04-28T07:28:18.875Z,10.00
2019-04-28T07:30:44.932Z,10.00
2019-04-28T07:33:10.988Z,9.90
2019-04-28T07:35:37.038Z,9.90
2019-04-28T07:38:03.092Z,9.90
2019-04-28T07:40:29.155Z,9.90
2019-04-28T07:42:55.266Z,9.90
2019-04-28T07:45:21.319Z,10.00
2019-04-28T07:47:47.364Z,10.00
2019-04-28T07:50:13.563Z,10.00
2019-04-28T07:52:44.071Z,10.00
2019-04-28T07:55:10.324Z,10.10
2019-04-28T07:57:36.380Z,10.20
2019-04-28T08:00:04.022Z,10.30
2019-04-28T08:02:30.083Z,10.40
2019-04-28T08:04:56.144Z,10.60
2019-04-28T08:07:22.232Z,10.80
2019-04-28T08:09:48.280Z,10.90
2019-04-28T08:12:14.341Z,10.90
2019-04-28T08:14:40.391Z,10.90
2019-04-28T08:17:06.445Z,10.80
2019-04-28T08:19:32.612Z,10.70
2019-04-28T08:21:58.660Z,10.70
2019-04-28T08:24:24.707Z,10.60
2019-04-28T08:26:50.765Z,10.50
2019-04-28T08:29:16.899Z,10.50
2019-04-28T08:31:56.663Z,10.50
2019-04-28T08:34:22.835Z,10.50
2019-04-28T08:36:48.911Z,10.40
2019-04-28T08:39:15.049Z,10.40
2019-04-28T08:41:41.151Z,10.40
2019-04-28T08:44:07.252Z,10.50
2019-04-28T08:46:33.307Z,10.50
2019-04-28T08:48:59.383Z,10.50
2019-04-28T08:51:25.499Z,10.50
2019-04-28T08:53:51.563Z,10.60
2019-04-28T08:56:17.615Z,10.60
2019-04-28T08:58:43.690Z,10.60
2019-04-28T09:01:09.867Z,10.70
2019-04-28T09:03:35.923Z,10.70
2019-04-28T09:06:02.072Z,10.70
2019-04-28T09:08:28.119Z,10.60
2019-04-28T09:10:54.190Z,10.60
2019-04-28T09:13:20.342Z,10.60
2019-04-28T09:15:46.395Z,10.70
2019-04-28T09:18:12.475Z,10.80
2019-04-28T09:20:38.625Z,10.90
2019-04-28T09:23:04.703Z,10.90
2019-04-28T09:25:30.847Z,11.00
2019-04-28T09:27:56.946Z,11.00
2019-04-28T09:30:23.095Z,11.10
2019-04-28T09:32:49.173Z,11.20
2019-04-28T09:35:15.221Z,11.20
2019-04-28T09:37:41.485Z,11.30
2019-04-28T09:40:10.012Z,11.40
2019-04-28T09:42:38.107Z,11.40
2019-04-28T09:45:08.899Z,11.50
2019-04-28T09:47:34.973Z,11.40
2019-04-28T09:50:01.020Z,11.40
2019-04-28T09:52:27.066Z,11.30
2019-04-28T09:54:53.123Z,11.30
2019-04-28T09:57:19.182Z,11.30
2019-04-28T09:59:45.223Z,11.30
2019-04-28T10:02:11.335Z,11.30
2019-04-28T10:04:41.812Z,11.30
2019-04-28T10:07:05.343Z,11.40
2019-04-28T10:09:31.429Z,11.70
2019-04-28T10:11:57.479Z,11.90
2019-04-28T10:14:23.524Z,12.20
2019-04-28T10:16:49.612Z,12.40
2019-04-28T10:19:15.656Z,12.60
2019-04-28T10:21:41.704Z,12.70
2019-04-28T10:24:07.755Z,13.00
2019-04-28T10:26:33.815Z,12.00
2019-04-28T10:28:59.873Z,13.20
2019-04-28T10:31:25.951Z,13.40
2019-04-28T10:33:53.904Z,13.60
2019-04-28T10:36:19.960Z,13.70
2019-04-28T10:38:47.918Z,13.80
2019-04-28T10:41:24.935Z,13.90
2019-04-28T10:43:51.111Z,13.90
2019-04-28T10:46:17.208Z,14.10
2019-04-28T10:48:43.360Z,14.00
2019-04-28T10:51:09.410Z,13.80
2019-04-28T10:53:35.476Z,13.70
2019-04-28T10:56:01.531Z,13.60
2019-04-28T10:58:27.691Z,13.50
2019-04-28T11:00:53.839Z,13.40
2019-04-28T11:03:19.888Z,13.50
2019-04-28T11:05:46.158Z,13.60
2019-04-28T11:08:31.056Z,13.60
2019-04-28T11:10:58.357Z,13.80
2019-04-28T11:13:24.482Z,13.80
2019-04-28T11:15:50.543Z,14.10
2019-04-28T11:18:17.107Z,14.30
2019-04-28T11:20:43.391Z,14.50
2019-04-28T11:23:09.457Z,14.50
2019-04-28T11:25:35.600Z,14.40
2019-04-28T11:28:01.863Z,14.40
2019-04-28T11:30:29.163Z,14.40
2019-04-28T11:32:57.720Z,14.30
2019-04-28T11:35:25.780Z,14.30
2019-04-28T11:37:51.931Z,14.40
2019-04-28T11:40:17.991Z,14.40
2019-04-28T11:42:44.056Z,14.40
2019-04-28T11:45:10.511Z,14.40
2019-04-28T11:47:36.601Z,14.50
2019-04-28T11:50:03.396Z,14.50
2019-04-28T11:52:29.446Z,14.50
2019-04-28T11:54:55.499Z,14.50
2019-04-28T11:57:21.552Z,14.40
2019-04-28T11:59:47.684Z,14.50
2019-04-28T12:02:13.828Z,14.60
2019-04-28T12:04:39.899Z,14.70
2019-04-28T12:07:05.947Z,14.90
2019-04-28T12:09:33.899Z,14.90
2019-04-28T12:12:01.904Z,14.90
2019-04-28T12:14:32.666Z,15.00
2019-04-28T12:17:00.639Z,15.10
2019-04-28T12:19:28.595Z,15.30
2019-04-28T12:21:54.962Z,15.30
2019-04-28T12:24:21.013Z,15.30
2019-04-28T12:26:47.075Z,15.10
2019-04-28T12:29:13.123Z,15.00
2019-04-28T12:31:39.208Z,14.90
2019-04-28T12:34:05.263Z,15.00
2019-04-28T12:36:31.320Z,15.10
2019-04-28T12:38:57.380Z,15.20
2019-04-28T12:41:23.436Z,15.30
2019-04-28T12:43:49.496Z,15.50
2019-04-28T12:46:15.564Z,15.70
2019-04-28T12:48:41.619Z,15.90
2019-04-28T12:51:07.975Z,16.20
2019-04-28T12:53:34.047Z,16.40
2019-04-28T12:56:00.100Z,16.40
2019-04-28T12:58:27.072Z,16.40
2019-04-28T13:00:55.131Z,16.40
2019-04-28T13:03:23.088Z,16.40
2019-04-28T13:06:01.530Z,16.40
2019-04-28T13:08:19.034Z,16.50
2019-04-28T13:10:45.084Z,16.00
2019-04-28T13:13:11.137Z,16.50
2019-04-28T13:15:37.220Z,16.50
2019-04-28T13:18:03.686Z,16.30
2019-04-28T13:20:29.801Z,16.20
2019-04-28T13:22:55.905Z,16.10
2019-04-28T13:25:21.954Z,16.00
2019-04-28T13:27:48.065Z,16.00
2019-04-28T13:30:14.596Z,15.90
2019-04-28T13:32:40.667Z,15.90
2019-04-28T13:35:07.041Z,16.00
2019-04-28T13:37:33.175Z,16.10
2019-04-28T13:40:01.245Z,16.10
2019-04-28T13:42:27.411Z,16.10
2019-04-28T13:44:55.447Z,16.20
2019-04-28T13:47:21.507Z,16.30
2019-04-28T13:49:55.426Z,16.40
2019-04-28T13:52:21.513Z,16.50
2019-04-28T13:54:49.472Z,16.50
2019-04-28T13:57:15.768Z,16.50
2019-04-28T13:59:41.880Z,16.60
2019-04-28T14:02:09.836Z,16.40
2019-04-28T14:04:37.826Z,16.40
2019-04-28T14:07:03.976Z,16.20
2019-04-28T14:09:30.037Z,16.00
2019-04-28T14:11:56.107Z,15.90
2019-04-28T14:14:22.149Z,15.80
2019-04-28T14:16:48.221Z,15.70
2019-04-28T14:19:14.365Z,15.50
2019-04-28T14:21:40.519Z,15.40
2019-04-28T14:24:06.584Z,15.30
2019-04-28T14:26:32.710Z,15.20
2019-04-28T14:28:58.871Z,15.10
2019-04-28T14:31:24.928Z,15.00
2019-04-28T14:33:50.988Z,14.80
2019-04-28T14:36:17.111Z,14.60
2019-04-28T14:38:43.321Z,14.30
2019-04-28T14:41:09.427Z,14.10
2019-04-28T14:43:35.479Z,14.00
2019-04-28T14:46:01.583Z,14.00
2019-04-28T14:48:27.691Z,14.00
2019-04-28T14:50:53.780Z,14.00
2019-04-28T14:53:19.909Z,13.90
2019-04-28T14:55:46.118Z,13.70
2019-04-28T14:58:12.227Z,13.60
2019-04-28T15:00:52.017Z,13.60
2019-04-28T15:03:19.296Z,13.60
2019-04-28T15:05:47.247Z,13.60
2019-04-28T15:08:20.810Z,13.60
2019-04-28T15:10:51.452Z,13.70
2019-04-28T15:13:18.710Z,13.70
2019-04-28T15:15:44.833Z,13.80
2019-04-28T15:18:11.123Z,13.90
2019-04-28T15:20:37.168Z,14.00
2019-04-28T15:23:03.233Z,14.00
2019-04-28T15:25:29.287Z,13.90
2019-04-28T15:27:55.353Z,13.70
2019-04-28T15:30:21.500Z,13.60
2019-04-28T15:32:47.569Z,13.50
2019-04-28T15:35:13.715Z,13.60
2019-04-28T15:37:39.771Z,13.60
2019-04-28T15:40:06.530Z,13.80
2019-04-28T15:42:32.588Z,13.90
2019-04-28T15:44:58.638Z,14.00
2019-04-28T15:47:24.711Z,14.10
2019-04-28T15:49:50.760Z,14.20
2019-04-28T15:52:17.028Z,14.20
2019-04-28T15:54:43.115Z,14.20
2019-04-28T15:57:09.208Z,14.20
2019-04-28T15:59:35.263Z,14.20
2019-04-28T16:02:01.319Z,14.30
2019-04-28T16:04:27.379Z,14.20
2019-04-28T16:06:53.434Z,14.10
2019-04-28T16:09:19.612Z,14.00
2019-04-28T16:11:45.678Z,13.90
2019-04-28T16:14:11.923Z,13.70
2019-04-28T16:16:37.984Z,13.50
2019-04-28T16:19:04.334Z,13.50
2019-04-28T16:21:30.479Z,13.50
2019-04-28T16:23:56.575Z,13.40
2019-04-28T16:26:23.131Z,13.30
2019-04-28T16:28:49.331Z,13.20
2019-04-28T16:31:15.408Z,13.10
2019-04-28T16:33:41.471Z,13.00
2019-04-28T16:36:07.543Z,13.00
2019-04-28T16:38:33.663Z,12.90
2019-04-28T16:41:02.249Z,12.90
2019-04-28T16:43:30.443Z,12.90
2019-04-28T16:45:56.587Z,12.90
2019-04-28T16:48:22.743Z,13.00
2019-04-28T16:50:48.787Z,12.90
2019-04-28T16:53:14.848Z,13.00
2019-04-28T16:55:42.803Z,13.00
2019-04-28T16:58:22.785Z,13.00
2019-04-28T17:00:56.353Z,14.10
2019-04-28T17:03:22.625Z,13.10
2019-04-28T17:05:48.685Z,13.00
2019-04-28T17:08:14.743Z,12.90
2019-04-28T17:10:40.804Z,12.80
2019-04-28T17:13:06.919Z,12.70
2019-04-28T17:15:33.071Z,12.70
2019-04-28T17:17:59.203Z,12.60
2019-04-28T17:20:25.254Z,12.50
2019-04-28T17:22:51.343Z,12.50
2019-04-28T17:25:17.608Z,12.60
2019-04-28T17:27:43.675Z,12.70
2019-04-28T17:30:11.533Z,12.70
2019-04-28T17:32:37.593Z,12.70
2019-04-28T17:35:04.863Z,12.70
2019-04-28T17:37:30.910Z,12.60
2019-04-28T17:39:56.963Z,12.50
2019-04-28T17:42:23.023Z,12.50
2019-04-28T17:44:49.110Z,12.50
2019-04-28T17:47:17.134Z,12.30
2019-04-28T17:49:43.295Z,12.30
2019-04-28T17:52:09.438Z,12.20
2019-04-28T17:54:35.491Z,12.20
2019-04-28T17:57:01.543Z,12.20
2019-04-28T17:59:27.609Z,12.20
2019-04-28T18:01:55.644Z,12.10
2019-04-28T18:04:40.117Z,12.10
2019-04-28T18:07:08.196Z,12.10
2019-04-28T18:09:34.309Z,12.00
2019-04-28T18:12:00.371Z,11.90
2019-04-28T18:14:26.421Z,11.80
2019-04-28T18:17:06.813Z,11.70
2019-04-28T18:19:32.926Z,11.60
2019-04-28T18:21:58.979Z,11.50
2019-04-28T18:24:25.081Z,11.40
2019-04-28T18:26:51.234Z,11.30
2019-04-28T18:29:17.292Z,11.20
2019-04-28T18:31:51.284Z,11.10
2019-04-28T18:34:22.126Z,11.00
2019-04-28T18:36:52.784Z,10.90
2019-04-28T18:39:37.592Z,10.80
2019-04-28T18:42:14.815Z,10.70
2019-04-28T18:44:41.055Z,10.60
2019-04-28T18:47:07.135Z,10.40
2019-04-28T18:49:33.263Z,10.40
2019-04-28T18:51:59.355Z,10.20
2019-04-28T18:54:25.408Z,10.10
2019-04-28T18:56:51.468Z,10.10
2019-04-28T18:59:17.640Z,10.00
2019-04-28T19:01:45.712Z,9.90
2019-04-28T19:04:11.905Z,9.80
2019-04-28T19:06:38.051Z,9.90
2019-04-28T19:09:17.116Z,10.10
2019-04-28T19:12:01.720Z,10.10
2019-04-28T19:14:32.635Z,10.10
2019-04-28T19:17:06.649Z,10.00
2019-04-28T19:19:34.715Z,9.90
2019-04-28T19:22:00.902Z,9.80
2019-04-28T19:24:27.135Z,9.80
2019-04-28T19:26:53.183Z,9.70
2019-04-28T19:29:19.548Z,9.70
2019-04-28T19:31:45.606Z,9.50
2019-04-28T19:34:11.684Z,9.50
2019-04-28T19:36:37.802Z,9.40
2019-04-28T19:39:04.735Z,9.30
2019-04-28T19:41:30.794Z,9.20
2019-04-28T19:43:56.842Z,9.20
2019-04-28T19:46:22.903Z,9.10
2019-04-28T19:48:48.955Z,9.00
2019-04-28T19:51:16.909Z,9.00
2019-04-28T19:53:42.963Z,8.90
2019-04-28T19:56:10.921Z,8.80
2019-04-28T19:58:41.659Z,8.80
2019-04-28T20:01:15.495Z,8.80
2019-04-28T20:03:41.579Z,8.70
2019-04-28T20:06:07.628Z,8.60
2019-04-28T20:08:33.699Z,8.60
2019-04-28T20:10:59.764Z,8.50
2019-04-28T20:13:25.918Z,8.50
2019-04-28T20:15:51.996Z,8.40
2019-04-28T20:18:18.048Z,8.40
2019-04-28T20:20:44.151Z,8.30
2019-04-28T20:23:10.203Z,8.20
2019-04-28T20:25:36.272Z,8.20
2019-04-28T20:28:02.320Z,8.10
2019-04-28T20:30:28.392Z,8.00
2019-04-28T20:33:06.560Z,8.00
2019-04-28T20:35:24.323Z,7.90
2019-04-28T20:37:52.284Z,7.80
2019-04-28T20:40:20.239Z,7.80
2019-04-28T20:42:48.216Z,7.70
2019-04-28T20:45:16.071Z,7.70
2019-04-28T20:47:42.145Z,7.60
2019-04-28T20:50:08.727Z,7.60
2019-04-28T20:52:34.848Z,7.50
2019-04-28T20:55:00.931Z,7.50
2019-04-28T20:57:26.985Z,7.50
2019-04-28T20:59:53.032Z,7.40
2019-04-28T21:02:19.092Z,7.40
2019-04-28T21:04:45.247Z,7.30
2019-04-28T21:07:11.394Z,7.30
2019-04-28T21:09:37.503Z,7.30
2019-04-28T21:12:03.560Z,7.20
2019-04-28T21:14:29.618Z,7.20
2019-04-28T21:16:55.952Z,7.20
2019-04-28T21:19:22.023Z,7.10
2019-04-28T21:21:48.075Z,7.10
2019-04-28T21:24:16.727Z,7.10
2019-04-28T21:26:42.099Z,7.10
2019-04-28T21:29:08.139Z,7.00
2019-04-28T21:31:34.209Z,7.00
2019-04-28T21:34:00.268Z,7.00
2019-04-28T21:36:26.391Z,7.00
2019-04-28T21:38:52.456Z,7.00
2019-04-28T21:41:18.511Z,6.90
2019-04-28T21:43:49.068Z,6.90
2019-04-28T21:46:23.330Z,6.90
2019-04-28T21:48:51.351Z,6.80
2019-04-28T21:51:17.401Z,6.80
2019-04-28T21:53:43.467Z,6.70
2019-04-28T21:56:09.527Z,6.70
2019-04-28T21:58:35.588Z,6.70
2019-04-28T22:01:02.705Z,6.60
2019-04-28T22:03:28.908Z,6.60
2019-04-28T22:05:54.988Z,6.60
2019-04-28T22:08:21.042Z,6.60
2019-04-28T22:10:47.093Z,6.50
2019-04-28T22:13:13.157Z,6.50
2019-04-28T22:15:39.246Z,6.50
2019-04-28T22:18:05.765Z,6.50
2019-04-28T22:20:31.852Z,6.50
2019-04-28T22:22:59.803Z,6.40
2019-04-28T22:25:25.851Z,6.40
2019-04-28T22:27:51.915Z,6.40
2019-04-28T22:30:17.980Z,6.40
2019-04-28T22:32:44.055Z,6.40
2019-04-28T22:35:15.135Z,6.40
2019-04-28T22:37:41.240Z,6.40
2019-04-28T22:40:07.871Z,6.40
2019-04-28T22:42:33.923Z,6.40
2019-04-28T22:44:59.971Z,6.40
2019-04-28T22:47:26.135Z,6.40
2019-04-28T22:49:52.288Z,6.40
2019-04-28T22:52:18.336Z,6.40
2019-04-28T22:54:49.121Z,6.40
2019-04-28T22:57:17.067Z,6.50
2019-04-28T22:59:45.035Z,6.50
2019-04-28T23:02:12.996Z,6.50
2019-04-28T23:04:43.531Z,6.60
2019-04-28T23:07:09.615Z,6.60
2019-04-28T23:09:35.664Z,6.60
2019-04-28T23:12:01.924Z,6.60
2019-04-28T23:14:27.978Z,6.60
2019-04-28T23:16:54.048Z,6.60
2019-04-28T23:19:22.015Z,6.60
2019-04-28T23:21:56.019Z,6.60
2019-04-28T23:24:22.072Z,6.60
2019-04-28T23:26:48.132Z,6.60
2019-04-28T23:29:14.279Z,6.60
2019-04-28T23:31:40.332Z,6.60
2019-04-28T23:34:06.386Z,6.70
2019-04-28T23:36:32.480Z,6.70
2019-04-28T23:38:58.524Z,6.70
2019-04-28T23:41:32.227Z,6.70
2019-04-28T23:43:58.287Z,6.70
2019-04-28T23:46:26.239Z,6.70
2019-04-28T23:48:52.292Z,6.70
2019-04-28T23:51:26.037Z,6.70
2019-04-28T23:53:56.972Z,6.70
2019-04-28T23:56:23.028Z,6.70
2019-04-28T23:58:49.083Z,6.70
